sensor_id;sensor_type;location;lat;lon;timestamp;P1;durP1;ratioP1;P2;durP2;ratioP2
32295;SDS011;18781;51.550;5.418;2024-01-07T00:01:55;51.92;;;26.00;;
32295;SDS011;18781;51.550;5.418;2024-01-07T00:04:21;46.83;;;24.98;;
32295;SDS011;18781;51.550;5.418;2024-01-07T00:06:46;46.75;;;25.08;;
32295;SDS011;18781;51.550;5.418;2024-01-07T00:09:12;48.80;;;25.67;;
32295;SDS011;18781;51.550;5.418;2024-01-07T00:11:38;50.30;;;26.33;;
32295;SDS011;18781;51.550;5.418;2024-01-07T00:14:04;49.38;;;25.45;;
32295;SDS011;18781;51.550;5.418;2024-01-07T00:16:30;45.65;;;25.38;;
32295;SDS011;18781;51.550;5.418;2024-01-07T00:18:56;53.00;;;26.98;;
32295;SDS011;18781;51.550;5.418;2024-01-07T00:21:22;46.45;;;25.80;;
32295;SDS011;18781;51.550;5.418;2024-01-07T00:23:47;53.13;;;26.63;;
32295;SDS011;18781;51.550;5.418;2024-01-07T00:26:13;55.22;;;28.85;;
32295;SDS011;18781;51.550;5.418;2024-01-07T00:28:39;48.90;;;27.55;;
32295;SDS011;18781;51.550;5.418;2024-01-07T00:31:04;46.03;;;24.73;;
32295;SDS011;18781;51.550;5.418;2024-01-07T00:33:32;44.17;;;24.88;;
32295;SDS011;18781;51.550;5.418;2024-01-07T00:35:59;45.10;;;24.92;;
32295;SDS011;18781;51.550;5.418;2024-01-07T00:38:24;43.85;;;24.60;;
32295;SDS011;18781;51.550;5.418;2024-01-07T00:40:50;40.42;;;23.05;;
32295;SDS011;18781;51.550;5.418;2024-01-07T00:43:15;37.50;;;22.48;;
32295;SDS011;18781;51.550;5.418;2024-01-07T00:45:41;37.15;;;21.92;;
32295;SDS011;18781;51.550;5.418;2024-01-07T00:48:07;33.83;;;20.80;;
32295;SDS011;18781;51.550;5.418;2024-01-07T00:50:33;32.22;;;19.77;;
32295;SDS011;18781;51.550;5.418;2024-01-07T00:52:58;34.28;;;21.52;;
32295;SDS011;18781;51.550;5.418;2024-01-07T00:55:24;30.20;;;19.00;;
32295;SDS011;18781;51.550;5.418;2024-01-07T00:57:50;30.15;;;19.60;;
32295;SDS011;18781;51.550;5.418;2024-01-07T01:00:16;33.60;;;20.70;;
32295;SDS011;18781;51.550;5.418;2024-01-07T01:02:42;31.25;;;19.40;;
32295;SDS011;18781;51.550;5.418;2024-01-07T01:05:07;36.30;;;20.80;;
32295;SDS011;18781;51.550;5.418;2024-01-07T01:07:33;33.50;;;20.42;;
32295;SDS011;18781;51.550;5.418;2024-01-07T01:09:58;33.63;;;21.63;;
32295;SDS011;18781;51.550;5.418;2024-01-07T01:12:24;33.00;;;20.85;;
32295;SDS011;18781;51.550;5.418;2024-01-07T01:14:50;33.85;;;19.80;;
32295;SDS011;18781;51.550;5.418;2024-01-07T01:17:15;34.13;;;20.67;;
32295;SDS011;18781;51.550;5.418;2024-01-07T01:19:41;34.78;;;21.08;;
32295;SDS011;18781;51.550;5.418;2024-01-07T01:22:07;41.67;;;22.08;;
32295;SDS011;18781;51.550;5.418;2024-01-07T01:24:32;38.92;;;22.20;;
32295;SDS011;18781;51.550;5.418;2024-01-07T01:26:58;40.70;;;22.90;;
32295;SDS011;18781;51.550;5.418;2024-01-07T01:29:24;40.75;;;23.50;;
32295;SDS011;18781;51.550;5.418;2024-01-07T01:31:49;39.75;;;23.20;;
32295;SDS011;18781;51.550;5.418;2024-01-07T01:34:15;44.63;;;25.63;;
32295;SDS011;18781;51.550;5.418;2024-01-07T01:36:40;46.38;;;24.52;;
32295;SDS011;18781;51.550;5.418;2024-01-07T01:39:06;43.85;;;24.17;;
32295;SDS011;18781;51.550;5.418;2024-01-07T01:41:32;42.75;;;24.65;;
32295;SDS011;18781;51.550;5.418;2024-01-07T01:43:58;43.35;;;25.33;;
32295;SDS011;18781;51.550;5.418;2024-01-07T01:46:25;45.92;;;25.30;;
32295;SDS011;18781;51.550;5.418;2024-01-07T01:48:53;45.67;;;25.90;;
32295;SDS011;18781;51.550;5.418;2024-01-07T01:51:20;45.10;;;24.75;;
32295;SDS011;18781;51.550;5.418;2024-01-07T01:53:46;43.80;;;25.35;;
32295;SDS011;18781;51.550;5.418;2024-01-07T01:56:14;50.90;;;27.27;;
32295;SDS011;18781;51.550;5.418;2024-01-07T01:58:43;50.88;;;27.55;;
32295;SDS011;18781;51.550;5.418;2024-01-07T02:01:09;46.85;;;26.75;;
32295;SDS011;18781;51.550;5.418;2024-01-07T02:03:35;54.63;;;27.27;;
32295;SDS011;18781;51.550;5.418;2024-01-07T02:06:00;52.92;;;29.17;;
32295;SDS011;18781;51.550;5.418;2024-01-07T02:08:27;52.05;;;28.40;;
32295;SDS011;18781;51.550;5.418;2024-01-07T02:10:52;54.35;;;27.88;;
32295;SDS011;18781;51.550;5.418;2024-01-07T02:13:18;52.38;;;28.17;;
32295;SDS011;18781;51.550;5.418;2024-01-07T02:15:44;59.88;;;28.90;;
32295;SDS011;18781;51.550;5.418;2024-01-07T02:18:09;52.13;;;28.27;;
32295;SDS011;18781;51.550;5.418;2024-01-07T02:20:35;52.08;;;27.80;;
32295;SDS011;18781;51.550;5.418;2024-01-07T02:23:01;52.15;;;27.55;;
32295;SDS011;18781;51.550;5.418;2024-01-07T02:25:28;52.92;;;25.77;;
32295;SDS011;18781;51.550;5.418;2024-01-07T02:27:53;48.92;;;25.67;;
32295;SDS011;18781;51.550;5.418;2024-01-07T02:30:19;51.83;;;26.40;;
32295;SDS011;18781;51.550;5.418;2024-01-07T02:32:45;48.42;;;25.88;;
32295;SDS011;18781;51.550;5.418;2024-01-07T02:35:11;50.25;;;27.05;;
32295;SDS011;18781;51.550;5.418;2024-01-07T02:37:36;52.47;;;25.20;;
32295;SDS011;18781;51.550;5.418;2024-01-07T02:40:02;50.47;;;26.30;;
32295;SDS011;18781;51.550;5.418;2024-01-07T02:42:28;52.50;;;26.75;;
32295;SDS011;18781;51.550;5.418;2024-01-07T02:44:53;56.85;;;28.30;;
32295;SDS011;18781;51.550;5.418;2024-01-07T02:47:19;58.53;;;29.17;;
32295;SDS011;18781;51.550;5.418;2024-01-07T02:49:44;61.30;;;30.35;;
32295;SDS011;18781;51.550;5.418;2024-01-07T02:52:10;64.13;;;30.13;;
32295;SDS011;18781;51.550;5.418;2024-01-07T02:54:35;66.13;;;30.85;;
32295;SDS011;18781;51.550;5.418;2024-01-07T02:57:01;62.92;;;30.35;;
32295;SDS011;18781;51.550;5.418;2024-01-07T02:59:27;68.63;;;32.63;;
32295;SDS011;18781;51.550;5.418;2024-01-07T03:01:52;72.13;;;33.78;;
32295;SDS011;18781;51.550;5.418;2024-01-07T03:04:18;71.35;;;34.15;;
32295;SDS011;18781;51.550;5.418;2024-01-07T03:06:44;73.88;;;33.15;;
32295;SDS011;18781;51.550;5.418;2024-01-07T03:09:09;74.88;;;35.17;;
32295;SDS011;18781;51.550;5.418;2024-01-07T03:11:41;77.88;;;35.30;;
32295;SDS011;18781;51.550;5.418;2024-01-07T03:14:07;75.65;;;35.25;;
32295;SDS011;18781;51.550;5.418;2024-01-07T03:16:32;78.85;;;36.28;;
32295;SDS011;18781;51.550;5.418;2024-01-07T03:18:58;78.78;;;35.63;;
32295;SDS011;18781;51.550;5.418;2024-01-07T03:21:24;76.90;;;36.78;;
32295;SDS011;18781;51.550;5.418;2024-01-07T03:23:50;77.60;;;37.00;;
32295;SDS011;18781;51.550;5.418;2024-01-07T03:26:16;82.82;;;36.92;;
32295;SDS011;18781;51.550;5.418;2024-01-07T03:28:44;82.88;;;37.95;;
32295;SDS011;18781;51.550;5.418;2024-01-07T03:31:14;77.88;;;35.78;;
32295;SDS011;18781;51.550;5.418;2024-01-07T03:33:41;80.85;;;36.25;;
32295;SDS011;18781;51.550;5.418;2024-01-07T03:36:08;78.85;;;37.53;;
32295;SDS011;18781;51.550;5.418;2024-01-07T03:38:34;77.43;;;36.67;;
32295;SDS011;18781;51.550;5.418;2024-01-07T03:41:00;75.53;;;35.65;;
32295;SDS011;18781;51.550;5.418;2024-01-07T03:43:26;73.10;;;34.83;;
32295;SDS011;18781;51.550;5.418;2024-01-07T03:45:51;69.47;;;33.88;;
32295;SDS011;18781;51.550;5.418;2024-01-07T03:48:17;74.25;;;32.63;;
32295;SDS011;18781;51.550;5.418;2024-01-07T03:50:42;70.28;;;33.45;;
32295;SDS011;18781;51.550;5.418;2024-01-07T03:53:08;69.68;;;34.25;;
32295;SDS011;18781;51.550;5.418;2024-01-07T03:55:34;62.42;;;30.75;;
32295;SDS011;18781;51.550;5.418;2024-01-07T03:58:00;65.72;;;31.42;;
32295;SDS011;18781;51.550;5.418;2024-01-07T04:00:25;64.13;;;32.53;;
32295;SDS011;18781;51.550;5.418;2024-01-07T04:02:51;58.50;;;30.88;;
32295;SDS011;18781;51.550;5.418;2024-01-07T04:05:16;62.78;;;31.80;;
32295;SDS011;18781;51.550;5.418;2024-01-07T04:07:42;61.63;;;31.27;;
32295;SDS011;18781;51.550;5.418;2024-01-07T04:10:08;59.20;;;31.27;;
32295;SDS011;18781;51.550;5.418;2024-01-07T04:12:34;61.22;;;31.08;;
32295;SDS011;18781;51.550;5.418;2024-01-07T04:14:59;57.55;;;29.60;;
32295;SDS011;18781;51.550;5.418;2024-01-07T04:17:25;58.42;;;30.13;;
32295;SDS011;18781;51.550;5.418;2024-01-07T04:19:51;52.40;;;28.02;;
32295;SDS011;18781;51.550;5.418;2024-01-07T04:22:17;59.60;;;28.42;;
32295;SDS011;18781;51.550;5.418;2024-01-07T04:24:43;54.00;;;27.63;;
32295;SDS011;18781;51.550;5.418;2024-01-07T04:27:08;53.30;;;27.92;;
32295;SDS011;18781;51.550;5.418;2024-01-07T04:29:34;52.15;;;27.80;;
32295;SDS011;18781;51.550;5.418;2024-01-07T04:32:00;58.75;;;28.30;;
32295;SDS011;18781;51.550;5.418;2024-01-07T04:34:26;57.90;;;28.77;;
32295;SDS011;18781;51.550;5.418;2024-01-07T04:36:51;56.22;;;28.70;;
32295;SDS011;18781;51.550;5.418;2024-01-07T04:39:17;55.55;;;27.92;;
32295;SDS011;18781;51.550;5.418;2024-01-07T04:41:42;55.38;;;28.40;;
32295;SDS011;18781;51.550;5.418;2024-01-07T04:44:08;54.80;;;27.42;;
32295;SDS011;18781;51.550;5.418;2024-01-07T04:46:34;53.55;;;27.20;;
32295;SDS011;18781;51.550;5.418;2024-01-07T04:49:03;52.38;;;27.48;;
32295;SDS011;18781;51.550;5.418;2024-01-07T04:51:28;53.80;;;27.35;;
32295;SDS011;18781;51.550;5.418;2024-01-07T04:53:54;56.83;;;29.10;;
32295;SDS011;18781;51.550;5.418;2024-01-07T04:56:19;54.00;;;28.05;;
32295;SDS011;18781;51.550;5.418;2024-01-07T04:58:45;54.70;;;26.92;;
32295;SDS011;18781;51.550;5.418;2024-01-07T05:01:11;51.83;;;26.25;;
32295;SDS011;18781;51.550;5.418;2024-01-07T05:03:36;51.80;;;26.48;;
32295;SDS011;18781;51.550;5.418;2024-01-07T05:06:03;51.60;;;24.95;;
32295;SDS011;18781;51.550;5.418;2024-01-07T05:08:29;47.85;;;25.38;;
32295;SDS011;18781;51.550;5.418;2024-01-07T05:10:55;43.15;;;22.27;;
32295;SDS011;18781;51.550;5.418;2024-01-07T05:13:21;39.50;;;22.00;;
32295;SDS011;18781;51.550;5.418;2024-01-07T05:15:47;39.40;;;21.90;;
32295;SDS011;18781;51.550;5.418;2024-01-07T05:18:19;41.67;;;20.98;;
32295;SDS011;18781;51.550;5.418;2024-01-07T05:20:48;33.90;;;19.67;;
32295;SDS011;18781;51.550;5.418;2024-01-07T05:23:15;35.47;;;20.08;;
32295;SDS011;18781;51.550;5.418;2024-01-07T05:25:42;35.10;;;20.55;;
32295;SDS011;18781;51.550;5.418;2024-01-07T05:28:08;32.45;;;20.02;;
32295;SDS011;18781;51.550;5.418;2024-01-07T05:30:34;34.20;;;19.67;;
32295;SDS011;18781;51.550;5.418;2024-01-07T05:33:00;33.95;;;18.60;;
32295;SDS011;18781;51.550;5.418;2024-01-07T05:35:26;32.25;;;19.02;;
32295;SDS011;18781;51.550;5.418;2024-01-07T05:37:51;32.30;;;18.33;;
32295;SDS011;18781;51.550;5.418;2024-01-07T05:40:17;27.75;;;17.52;;
32295;SDS011;18781;51.550;5.418;2024-01-07T05:42:42;28.38;;;17.48;;
32295;SDS011;18781;51.550;5.418;2024-01-07T05:45:08;31.45;;;18.70;;
32295;SDS011;18781;51.550;5.418;2024-01-07T05:47:34;31.33;;;19.25;;
32295;SDS011;18781;51.550;5.418;2024-01-07T05:50:00;30.25;;;18.35;;
32295;SDS011;18781;51.550;5.418;2024-01-07T05:52:25;34.40;;;19.23;;
32295;SDS011;18781;51.550;5.418;2024-01-07T05:54:51;28.83;;;17.75;;
32295;SDS011;18781;51.550;5.418;2024-01-07T05:57:17;26.25;;;17.70;;
32295;SDS011;18781;51.550;5.418;2024-01-07T05:59:45;29.83;;;18.13;;
32295;SDS011;18781;51.550;5.418;2024-01-07T06:02:11;27.50;;;17.23;;
32295;SDS011;18781;51.550;5.418;2024-01-07T06:04:37;28.17;;;18.17;;
32295;SDS011;18781;51.550;5.418;2024-01-07T06:07:03;29.05;;;17.02;;
32295;SDS011;18781;51.550;5.418;2024-01-07T06:09:29;25.48;;;16.25;;
32295;SDS011;18781;51.550;5.418;2024-01-07T06:11:54;28.05;;;16.08;;
32295;SDS011;18781;51.550;5.418;2024-01-07T06:14:20;25.15;;;16.20;;
32295;SDS011;18781;51.550;5.418;2024-01-07T06:16:47;25.25;;;15.80;;
32295;SDS011;18781;51.550;5.418;2024-01-07T06:19:13;26.75;;;16.65;;
32295;SDS011;18781;51.550;5.418;2024-01-07T06:21:39;27.10;;;17.55;;
32295;SDS011;18781;51.550;5.418;2024-01-07T06:24:07;29.77;;;18.08;;
32295;SDS011;18781;51.550;5.418;2024-01-07T06:26:33;29.27;;;17.92;;
32295;SDS011;18781;51.550;5.418;2024-01-07T06:28:58;30.70;;;18.05;;
32295;SDS011;18781;51.550;5.418;2024-01-07T06:31:24;31.63;;;19.65;;
32295;SDS011;18781;51.550;5.418;2024-01-07T06:33:50;36.33;;;20.13;;
32295;SDS011;18781;51.550;5.418;2024-01-07T06:36:16;31.95;;;19.80;;
32295;SDS011;18781;51.550;5.418;2024-01-07T06:38:42;35.47;;;20.83;;
32295;SDS011;18781;51.550;5.418;2024-01-07T06:41:09;34.78;;;20.90;;
32295;SDS011;18781;51.550;5.418;2024-01-07T06:43:35;37.85;;;22.05;;
32295;SDS011;18781;51.550;5.418;2024-01-07T06:46:00;34.50;;;21.42;;
32295;SDS011;18781;51.550;5.418;2024-01-07T06:48:26;37.50;;;21.85;;
32295;SDS011;18781;51.550;5.418;2024-01-07T06:50:52;39.83;;;22.48;;
32295;SDS011;18781;51.550;5.418;2024-01-07T06:53:17;36.58;;;22.67;;
32295;SDS011;18781;51.550;5.418;2024-01-07T06:55:43;37.58;;;22.75;;
32295;SDS011;18781;51.550;5.418;2024-01-07T06:58:09;36.90;;;21.98;;
32295;SDS011;18781;51.550;5.418;2024-01-07T07:00:34;35.70;;;22.10;;
32295;SDS011;18781;51.550;5.418;2024-01-07T07:03:00;37.97;;;21.83;;
32295;SDS011;18781;51.550;5.418;2024-01-07T07:05:25;36.17;;;21.83;;
32295;SDS011;18781;51.550;5.418;2024-01-07T07:07:52;39.10;;;23.45;;
32295;SDS011;18781;51.550;5.418;2024-01-07T07:10:17;41.53;;;23.20;;
32295;SDS011;18781;51.550;5.418;2024-01-07T07:12:43;38.88;;;23.48;;
32295;SDS011;18781;51.550;5.418;2024-01-07T07:15:09;41.17;;;23.15;;
32295;SDS011;18781;51.550;5.418;2024-01-07T07:17:38;39.63;;;23.10;;
32295;SDS011;18781;51.550;5.418;2024-01-07T07:20:04;35.15;;;22.00;;
32295;SDS011;18781;51.550;5.418;2024-01-07T07:22:30;36.88;;;22.45;;
32295;SDS011;18781;51.550;5.418;2024-01-07T07:24:56;38.45;;;23.20;;
32295;SDS011;18781;51.550;5.418;2024-01-07T07:27:22;35.70;;;21.90;;
32295;SDS011;18781;51.550;5.418;2024-01-07T07:29:47;33.80;;;22.83;;
32295;SDS011;18781;51.550;5.418;2024-01-07T07:32:13;31.52;;;21.20;;
32295;SDS011;18781;51.550;5.418;2024-01-07T07:34:38;36.60;;;21.90;;
32295;SDS011;18781;51.550;5.418;2024-01-07T07:37:04;33.60;;;20.27;;
32295;SDS011;18781;51.550;5.418;2024-01-07T07:39:30;31.67;;;18.70;;
32295;SDS011;18781;51.550;5.418;2024-01-07T07:41:55;28.92;;;17.55;;
32295;SDS011;18781;51.550;5.418;2024-01-07T07:44:21;26.38;;;16.05;;
32295;SDS011;18781;51.550;5.418;2024-01-07T07:46:47;25.75;;;16.08;;
32295;SDS011;18781;51.550;5.418;2024-01-07T07:49:12;26.50;;;16.20;;
32295;SDS011;18781;51.550;5.418;2024-01-07T07:51:38;24.17;;;15.35;;
32295;SDS011;18781;51.550;5.418;2024-01-07T07:54:04;26.00;;;15.23;;
32295;SDS011;18781;51.550;5.418;2024-01-07T07:56:30;25.08;;;15.30;;
32295;SDS011;18781;51.550;5.418;2024-01-07T07:58:56;24.45;;;14.82;;
32295;SDS011;18781;51.550;5.418;2024-01-07T08:01:21;26.90;;;16.48;;
32295;SDS011;18781;51.550;5.418;2024-01-07T08:03:47;26.67;;;15.57;;
32295;SDS011;18781;51.550;5.418;2024-01-07T08:06:12;26.80;;;15.98;;
32295;SDS011;18781;51.550;5.418;2024-01-07T08:08:38;27.67;;;16.20;;
32295;SDS011;18781;51.550;5.418;2024-01-07T08:11:04;29.90;;;16.08;;
32295;SDS011;18781;51.550;5.418;2024-01-07T08:13:34;27.30;;;16.00;;
32295;SDS011;18781;51.550;5.418;2024-01-07T08:16:01;27.55;;;16.42;;
32295;SDS011;18781;51.550;5.418;2024-01-07T08:18:26;27.30;;;15.35;;
32295;SDS011;18781;51.550;5.418;2024-01-07T08:20:52;25.90;;;15.30;;
32295;SDS011;18781;51.550;5.418;2024-01-07T08:23:17;25.10;;;14.88;;
32295;SDS011;18781;51.550;5.418;2024-01-07T08:25:43;28.52;;;15.80;;
32295;SDS011;18781;51.550;5.418;2024-01-07T08:28:10;28.17;;;15.65;;
32295;SDS011;18781;51.550;5.418;2024-01-07T08:30:36;28.98;;;15.48;;
32295;SDS011;18781;51.550;5.418;2024-01-07T08:33:01;28.75;;;16.98;;
32295;SDS011;18781;51.550;5.418;2024-01-07T08:35:27;27.73;;;16.00;;
32295;SDS011;18781;51.550;5.418;2024-01-07T08:37:53;31.15;;;16.77;;
32295;SDS011;18781;51.550;5.418;2024-01-07T08:40:18;29.30;;;17.63;;
32295;SDS011;18781;51.550;5.418;2024-01-07T08:42:44;27.15;;;16.15;;
32295;SDS011;18781;51.550;5.418;2024-01-07T08:45:10;24.05;;;15.25;;
32295;SDS011;18781;51.550;5.418;2024-01-07T08:47:36;27.02;;;15.23;;
32295;SDS011;18781;51.550;5.418;2024-01-07T08:50:02;26.13;;;14.18;;
32295;SDS011;18781;51.550;5.418;2024-01-07T08:52:28;25.27;;;15.18;;
32295;SDS011;18781;51.550;5.418;2024-01-07T08:54:54;24.05;;;14.95;;
32295;SDS011;18781;51.550;5.418;2024-01-07T08:57:20;23.05;;;15.27;;
32295;SDS011;18781;51.550;5.418;2024-01-07T08:59:46;25.38;;;15.15;;
32295;SDS011;18781;51.550;5.418;2024-01-07T09:02:11;21.33;;;13.80;;
32295;SDS011;18781;51.550;5.418;2024-01-07T09:04:38;23.52;;;14.45;;
32295;SDS011;18781;51.550;5.418;2024-01-07T09:07:04;24.50;;;13.98;;
32295;SDS011;18781;51.550;5.418;2024-01-07T09:09:29;24.17;;;14.27;;
32295;SDS011;18781;51.550;5.418;2024-01-07T09:11:55;21.77;;;13.57;;
32295;SDS011;18781;51.550;5.418;2024-01-07T09:14:21;22.77;;;13.77;;
32295;SDS011;18781;51.550;5.418;2024-01-07T09:16:47;19.42;;;12.82;;
32295;SDS011;18781;51.550;5.418;2024-01-07T09:19:13;21.55;;;13.55;;
32295;SDS011;18781;51.550;5.418;2024-01-07T09:21:38;21.52;;;13.57;;
32295;SDS011;18781;51.550;5.418;2024-01-07T09:24:04;20.05;;;13.65;;
32295;SDS011;18781;51.550;5.418;2024-01-07T09:26:30;21.90;;;13.50;;
32295;SDS011;18781;51.550;5.418;2024-01-07T09:28:56;19.02;;;13.45;;
32295;SDS011;18781;51.550;5.418;2024-01-07T09:31:22;20.17;;;12.50;;
32295;SDS011;18781;51.550;5.418;2024-01-07T09:33:47;22.88;;;14.52;;
32295;SDS011;18781;51.550;5.418;2024-01-07T09:36:13;23.73;;;13.32;;
32295;SDS011;18781;51.550;5.418;2024-01-07T09:38:39;19.75;;;13.43;;
32295;SDS011;18781;51.550;5.418;2024-01-07T09:41:05;19.20;;;13.57;;
32295;SDS011;18781;51.550;5.418;2024-01-07T09:43:31;22.55;;;13.90;;
32295;SDS011;18781;51.550;5.418;2024-01-07T09:45:56;21.25;;;13.95;;
32295;SDS011;18781;51.550;5.418;2024-01-07T09:48:23;20.48;;;13.45;;
32295;SDS011;18781;51.550;5.418;2024-01-07T09:50:50;29.60;;;13.45;;
32295;SDS011;18781;51.550;5.418;2024-01-07T09:53:17;17.58;;;12.80;;
32295;SDS011;18781;51.550;5.418;2024-01-07T09:55:47;17.23;;;12.07;;
32295;SDS011;18781;51.550;5.418;2024-01-07T09:58:21;18.73;;;12.18;;
32295;SDS011;18781;51.550;5.418;2024-01-07T10:00:47;17.13;;;11.27;;
32295;SDS011;18781;51.550;5.418;2024-01-07T10:03:14;17.85;;;12.30;;
32295;SDS011;18781;51.550;5.418;2024-01-07T10:05:39;16.55;;;11.00;;
32295;SDS011;18781;51.550;5.418;2024-01-07T10:08:05;17.88;;;11.77;;
32295;SDS011;18781;51.550;5.418;2024-01-07T10:10:31;16.25;;;11.60;;
32295;SDS011;18781;51.550;5.418;2024-01-07T10:12:59;17.77;;;11.63;;
32295;SDS011;18781;51.550;5.418;2024-01-07T10:15:25;15.95;;;12.05;;
32295;SDS011;18781;51.550;5.418;2024-01-07T10:17:54;17.50;;;12.30;;
32295;SDS011;18781;51.550;5.418;2024-01-07T10:20:20;18.90;;;11.05;;
32295;SDS011;18781;51.550;5.418;2024-01-07T10:22:46;17.92;;;11.57;;
32295;SDS011;18781;51.550;5.418;2024-01-07T10:27:41;16.08;;;11.55;;
32295;SDS011;18781;51.550;5.418;2024-01-07T10:30:06;21.38;;;13.10;;
32295;SDS011;18781;51.550;5.418;2024-01-07T10:32:35;22.38;;;12.73;;
32295;SDS011;18781;51.550;5.418;2024-01-07T10:35:02;18.60;;;12.30;;
32295;SDS011;18781;51.550;5.418;2024-01-07T10:37:30;19.00;;;12.68;;
32295;SDS011;18781;51.550;5.418;2024-01-07T10:39:59;17.20;;;12.25;;
32295;SDS011;18781;51.550;5.418;2024-01-07T10:42:32;21.10;;;13.18;;
32295;SDS011;18781;51.550;5.418;2024-01-07T10:44:59;31.42;;;19.20;;
32295;SDS011;18781;51.550;5.418;2024-01-07T10:47:26;16.77;;;12.15;;
32295;SDS011;18781;51.550;5.418;2024-01-07T10:49:56;25.58;;;19.23;;
32295;SDS011;18781;51.550;5.418;2024-01-07T10:52:24;20.40;;;12.68;;
32295;SDS011;18781;51.550;5.418;2024-01-07T10:54:52;29.50;;;17.15;;
32295;SDS011;18781;51.550;5.418;2024-01-07T10:59:56;22.30;;;13.85;;
32295;SDS011;18781;51.550;5.418;2024-01-07T11:02:23;18.98;;;12.70;;
32295;SDS011;18781;51.550;5.418;2024-01-07T11:07:41;20.58;;;12.18;;
32295;SDS011;18781;51.550;5.418;2024-01-07T11:10:20;18.75;;;12.52;;
32295;SDS011;18781;51.550;5.418;2024-01-07T11:12:53;22.48;;;13.20;;
32295;SDS011;18781;51.550;5.418;2024-01-07T11:18:20;19.98;;;12.90;;
32295;SDS011;18781;51.550;5.418;2024-01-07T11:20:47;22.45;;;13.65;;
32295;SDS011;18781;51.550;5.418;2024-01-07T11:23:30;19.20;;;12.52;;
32295;SDS011;18781;51.550;5.418;2024-01-07T11:26:02;20.95;;;12.27;;
32295;SDS011;18781;51.550;5.418;2024-01-07T11:31:15;22.88;;;13.38;;
32295;SDS011;18781;51.550;5.418;2024-01-07T11:33:45;20.67;;;12.82;;
32295;SDS011;18781;51.550;5.418;2024-01-07T11:36:12;27.50;;;13.00;;
32295;SDS011;18781;51.550;5.418;2024-01-07T11:38:45;21.23;;;13.35;;
32295;SDS011;18781;51.550;5.418;2024-01-07T11:41:14;22.02;;;12.68;;
32295;SDS011;18781;51.550;5.418;2024-01-07T11:43:58;21.60;;;12.38;;
32295;SDS011;18781;51.550;5.418;2024-01-07T11:46:29;24.55;;;13.88;;
32295;SDS011;18781;51.550;5.418;2024-01-07T11:48:58;25.23;;;14.35;;
32295;SDS011;18781;51.550;5.418;2024-01-07T11:51:27;24.33;;;13.05;;
32295;SDS011;18781;51.550;5.418;2024-01-07T11:53:53;23.25;;;13.57;;
32295;SDS011;18781;51.550;5.418;2024-01-07T11:56:19;24.05;;;13.70;;
32295;SDS011;18781;51.550;5.418;2024-01-07T11:58:45;24.50;;;14.93;;
32295;SDS011;18781;51.550;5.418;2024-01-07T12:01:11;22.20;;;13.57;;
32295;SDS011;18781;51.550;5.418;2024-01-07T12:03:39;22.93;;;14.23;;
32295;SDS011;18781;51.550;5.418;2024-01-07T12:06:06;22.50;;;14.27;;
32295;SDS011;18781;51.550;5.418;2024-01-07T12:08:32;34.47;;;24.00;;
32295;SDS011;18781;51.550;5.418;2024-01-07T12:10:58;68.38;;;45.40;;
32295;SDS011;18781;51.550;5.418;2024-01-07T12:13:24;20.00;;;13.50;;
32295;SDS011;18781;51.550;5.418;2024-01-07T12:15:50;26.35;;;12.18;;
32295;SDS011;18781;51.550;5.418;2024-01-07T12:18:16;16.27;;;10.73;;
32295;SDS011;18781;51.550;5.418;2024-01-07T12:20:42;16.90;;;10.00;;
32295;SDS011;18781;51.550;5.418;2024-01-07T12:23:19;14.38;;;8.48;;
32295;SDS011;18781;51.550;5.418;2024-01-07T12:25:44;13.38;;;9.25;;
32295;SDS011;18781;51.550;5.418;2024-01-07T12:28:10;18.42;;;8.98;;
32295;SDS011;18781;51.550;5.418;2024-01-07T12:30:36;12.85;;;8.88;;
32295;SDS011;18781;51.550;5.418;2024-01-07T12:33:04;13.75;;;9.10;;
32295;SDS011;18781;51.550;5.418;2024-01-07T12:35:30;12.63;;;8.25;;
32295;SDS011;18781;51.550;5.418;2024-01-07T12:37:56;12.43;;;8.85;;
32295;SDS011;18781;51.550;5.418;2024-01-07T12:40:24;15.95;;;9.32;;
32295;SDS011;18781;51.550;5.418;2024-01-07T12:42:51;18.65;;;9.73;;
32295;SDS011;18781;51.550;5.418;2024-01-07T12:45:17;12.88;;;9.32;;
32295;SDS011;18781;51.550;5.418;2024-01-07T12:47:43;14.90;;;9.07;;
32295;SDS011;18781;51.550;5.418;2024-01-07T12:50:09;12.98;;;9.38;;
32295;SDS011;18781;51.550;5.418;2024-01-07T12:52:38;11.60;;;9.10;;
32295;SDS011;18781;51.550;5.418;2024-01-07T12:55:05;11.45;;;7.70;;
32295;SDS011;18781;51.550;5.418;2024-01-07T12:57:32;11.73;;;8.20;;
32295;SDS011;18781;51.550;5.418;2024-01-07T12:59:58;11.85;;;7.72;;
32295;SDS011;18781;51.550;5.418;2024-01-07T13:02:24;10.57;;;7.65;;
32295;SDS011;18781;51.550;5.418;2024-01-07T13:04:50;17.20;;;7.57;;
32295;SDS011;18781;51.550;5.418;2024-01-07T13:07:16;11.55;;;7.88;;
32295;SDS011;18781;51.550;5.418;2024-01-07T13:09:42;13.95;;;7.63;;
32295;SDS011;18781;51.550;5.418;2024-01-07T13:12:09;14.35;;;8.00;;
32295;SDS011;18781;51.550;5.418;2024-01-07T13:14:35;10.80;;;7.35;;
32295;SDS011;18781;51.550;5.418;2024-01-07T13:17:01;11.00;;;7.55;;
32295;SDS011;18781;51.550;5.418;2024-01-07T13:19:27;11.90;;;7.75;;
32295;SDS011;18781;51.550;5.418;2024-01-07T13:21:53;12.48;;;7.25;;
32295;SDS011;18781;51.550;5.418;2024-01-07T13:24:23;12.40;;;6.90;;
32295;SDS011;18781;51.550;5.418;2024-01-07T13:26:49;14.05;;;6.80;;
32295;SDS011;18781;51.550;5.418;2024-01-07T13:29:14;10.45;;;6.25;;
32295;SDS011;18781;51.550;5.418;2024-01-07T13:31:40;9.30;;;6.40;;
32295;SDS011;18781;51.550;5.418;2024-01-07T13:34:06;9.55;;;6.40;;
32295;SDS011;18781;51.550;5.418;2024-01-07T13:36:31;9.75;;;5.43;;
32295;SDS011;18781;51.550;5.418;2024-01-07T13:38:57;8.20;;;5.47;;
32295;SDS011;18781;51.550;5.418;2024-01-07T13:41:22;5.80;;;4.47;;
32295;SDS011;18781;51.550;5.418;2024-01-07T13:43:48;10.02;;;4.63;;
32295;SDS011;18781;51.550;5.418;2024-01-07T13:46:14;6.68;;;4.63;;
32295;SDS011;18781;51.550;5.418;2024-01-07T13:48:40;6.07;;;4.60;;
32295;SDS011;18781;51.550;5.418;2024-01-07T13:51:07;6.15;;;3.92;;
32295;SDS011;18781;51.550;5.418;2024-01-07T13:53:34;6.88;;;4.18;;
32295;SDS011;18781;51.550;5.418;2024-01-07T13:56:00;5.97;;;3.80;;
32295;SDS011;18781;51.550;5.418;2024-01-07T13:58:25;8.50;;;4.35;;
32295;SDS011;18781;51.550;5.418;2024-01-07T14:00:51;8.30;;;4.15;;
32295;SDS011;18781;51.550;5.418;2024-01-07T14:03:17;7.70;;;3.95;;
32295;SDS011;18781;51.550;5.418;2024-01-07T14:05:43;6.47;;;4.10;;
32295;SDS011;18781;51.550;5.418;2024-01-07T14:08:08;6.47;;;4.45;;
32295;SDS011;18781;51.550;5.418;2024-01-07T14:10:34;6.20;;;3.95;;
32295;SDS011;18781;51.550;5.418;2024-01-07T14:13:01;6.90;;;4.50;;
32295;SDS011;18781;51.550;5.418;2024-01-07T14:15:27;5.10;;;3.90;;
32295;SDS011;18781;51.550;5.418;2024-01-07T14:17:54;5.97;;;3.75;;
32295;SDS011;18781;51.550;5.418;2024-01-07T14:20:19;6.95;;;3.75;;
32295;SDS011;18781;51.550;5.418;2024-01-07T14:22:46;11.50;;;4.10;;
32295;SDS011;18781;51.550;5.418;2024-01-07T14:25:12;6.82;;;4.25;;
32295;SDS011;18781;51.550;5.418;2024-01-07T14:27:39;7.28;;;3.50;;
32295;SDS011;18781;51.550;5.418;2024-01-07T14:30:05;5.78;;;3.47;;
32295;SDS011;18781;51.550;5.418;2024-01-07T14:32:32;7.28;;;3.60;;